Britt, Canada
Current Conditions -  °F | °C
As of 10:00 AM on Friday 24 Oct 2014 (Local Time) from CYSB Reporting Station
Scattered Clouds Scattered Clouds  
Wind Chill: 37°   Ceiling: Unl
Heat Index: 37°   Visibility: 20mi
Dew Point: 34°   Wind: 3mph
Humidity: 87%   Direction: 300°WNW
Pressure: 29.99"   Gusts: NA
Location:  45.78°N, 80.53°W
Report Text: CYSB 241400Z 30003KT 280V020 20SM SCT200 03/01 A2999 RMK CI4 SLP168
Loading
Personal Weather Stations






























Interactive Weather Map
Tropical Storm Tracking
New forecast layout! Learn more

10-Day Weather Forecast

Advertisements
Track Severe Weather on mobile